Latest Weather Observations for Mount Lofty

IDS60801

Issued at 3:32 am CDT Saturday 20 December 2014 (issued every 30 minutes, with the page automatically refreshed every 10 minutes)

About weather observations | Map of weather stations | Latest weather observations for SA | Other Formats
Station Details ID: 023842 Name: MOUNT LOFTY Lat: -34.98 Lon: 138.71 Height: 685.0 m
Data from the previous 72 hours. | See also: Recent months at Mount Lofty
Date/Time
CDT
Temp
°C
App
Temp
°C
Dew
Point
Rel
Hum
%
Delta-T
°C
Wind Press
QNH
hPa
Press
MSL
hPa
Rain
since 9 am
mm
Dir
 
Spd
km/h
Gust
km/h
Spd
kts
Gust
kts
20/03:30am 8.9 6.7 8.0 94 0.4 E 9 13 5 7 - - 0.0
20/03:00am 9.2 6.3 8.3 94 0.5 ESE 13 19 7 10 - - 0.0
20/02:30am 8.9 6.0 8.0 94 0.4 ESE 13 19 7 10 - - 0.0
20/02:00am 9.0 6.1 8.1 94 0.4 ESE 13 20 7 11 - - 0.0
20/01:30am 9.0 6.4 7.9 93 0.5 ESE 11 19 6 10 - - 0.0
20/01:00am 9.0 6.4 7.9 93 0.5 ESE 11 17 6 9 - - 0.0
20/12:30am 9.1 6.1 7.9 92 0.6 ESE 13 17 7 9 - - 0.0
20/12:00am 9.2 6.3 8.0 92 0.6 ESE 13 17 7 9 - - 0.0
 
Date/Time
CDT
Temp
°C
App
Temp
°C
Dew
Point
Rel
Hum
%
Delta-T
°C
Wind Press
QNH
hPa
Press
MSL
hPa
Rain
since 9 am
mm
Dir
 
Spd
km/h
Gust
km/h
Spd
kts
Gust
kts
19/11:30pm 9.3 6.3 7.9 91 0.7 ESE 13 20 7 11 - - 0.0
19/11:00pm 9.5 6.5 7.9 90 0.8 ESE 13 20 7 11 - - 0.0
19/10:30pm 9.7 6.7 7.8 88 0.9 ESE 13 20 7 11 - - 0.0
19/10:00pm 9.9 6.5 7.8 87 1.0 ESE 15 20 8 11 - - 0.0
19/09:30pm 10.2 7.2 7.8 85 1.2 ESE 13 20 7 11 - - 0.0
19/09:00pm 10.9 8.0 8.0 82 1.5 ESE 13 22 7 12 - - 0.0
19/08:30pm 11.6 9.3 7.5 76 2.1 ESE 9 19 5 10 - - 0.0
19/08:00pm 12.9 11.0 7.6 70 2.7 SE 7 11 4 6 - - 0.0
19/07:30pm 14.3 12.8 8.3 67 3.1 SE 6 13 3 7 - - 0.0
19/07:00pm 15.9 14.6 9.1 64 3.6 S 6 13 3 7 - - 0.0
19/06:30pm 16.3 14.9 9.0 62 3.9 SSW 6 11 3 6 - - 0.0
19/06:00pm 17.3 15.6 8.4 56 4.7 S 7 24 4 13 - - 0.0
19/05:30pm 17.7 15.9 8.0 53 5.1 S 7 17 4 9 - - 0.0
19/05:00pm 18.4 16.6 8.1 51 5.5 SW 7 17 4 9 - - 0.0
19/04:30pm 18.3 16.5 8.0 51 5.5 SSW 7 17 4 9 - - 0.0
19/04:00pm 18.8 17.2 8.7 52 5.4 SW 7 17 4 9 - - 0.0
19/03:30pm 18.5 16.9 8.7 53 5.3 WSW 7 15 4 8 - - 0.0
19/03:00pm 17.9 16.6 9.8 59 4.4 W 7 17 4 9 - - 0.0
19/02:30pm 16.8 14.6 9.2 61 4.1 WNW 11 20 6 11 - - 0.0
19/02:00pm 16.4 14.5 9.1 62 3.9 W 9 20 5 11 - - 0.0
19/01:30pm 16.9 15.3 8.6 58 4.4 W 7 15 4 8 - - 0.0
19/01:00pm 17.0 15.0 8.7 58 4.4 W 9 15 5 8 - - 0.0
19/12:30pm 15.5 13.7 7.8 60 4.0 W 7 15 4 8 - - 0.0
19/12:00pm 16.1 13.9 5.4 49 5.3 WSW 6 9 3 5 - - 0.0
19/11:30am 15.0 13.0 6.3 56 4.4 W 6 11 3 6 - - 0.0
19/11:00am 13.8 11.9 6.7 62 3.6 SW 6 11 3 6 - - 0.0
19/10:30am 13.9 11.7 6.3 60 3.8 SW 7 15 4 8 - - 0.0
19/10:00am 13.3 11.8 6.6 64 3.3 SW 4 7 2 4 - - 0.0
19/09:30am 13.1 11.0 6.0 62 3.5 SE 6 11 3 6 - - 0.0
19/09:00am 12.3 10.4 6.6 68 2.8 SSE 6 15 3 8 - - 0.0
19/08:30am 11.6 9.6 6.3 70 2.6 SSE 6 13 3 7 - - 0.0
19/08:00am 11.0 9.4 6.4 73 2.2 S 4 9 2 5 - - 0.0
19/07:30am 9.9 7.7 5.3 73 2.2 S 6 11 3 6 - - 0.0
19/07:00am 9.1 7.0 6.5 84 1.3 SSE 7 17 4 9 - - 0.0
19/06:30am 8.6 6.6 6.4 86 1.1 S 6 13 3 7 - - 0.0
19/06:00am 8.3 6.3 6.1 86 1.0 S 6 11 3 6 - - 0.0
19/05:30am 8.5 6.3 6.1 85 1.1 SSE 7 17 4 9 - - 0.0
19/05:00am 8.5 6.5 6.3 86 1.1 S 6 11 3 6 - - 0.0
19/04:30am 8.5 6.5 6.3 86 1.1 SSE 6 11 3 6 - - 0.0
19/04:00am 8.7 6.6 6.0 83 1.3 S 6 11 3 6 - - 0.0
19/03:30am 8.6 6.9 5.7 82 1.4 S 4 9 2 5 - - 0.0
19/03:00am 8.6 6.9 5.9 83 1.3 S 4 7 2 4 - - 0.0
19/02:30am 8.8 6.8 6.1 83 1.3 SSW 6 11 3 6 - - 0.0
19/02:00am 9.0 6.9 5.7 80 1.6 S 6 9 3 5 - - 0.0
19/01:30am 9.0 6.7 5.6 79 1.6 S 7 11 4 6 - - 0.0
19/01:00am 8.9 6.6 5.5 79 1.6 S 7 15 4 8 - - 0.0
19/12:30am 9.0 6.8 6.1 82 1.4 S 7 17 4 9 - - 0.0
19/12:00am 9.0 7.1 6.6 85 1.2 S 6 13 3 7 - - 0.0
 
Date/Time
CDT
Temp
°C
App
Temp
°C
Dew
Point
Rel
Hum
%
Delta-T
°C
Wind Press
QNH
hPa
Press
MSL
hPa
Rain
since 9 am
mm
Dir
 
Spd
km/h
Gust
km/h
Spd
kts
Gust
kts
18/11:30pm 9.0 7.1 6.6 85 1.2 S 6 11 3 6 - - 0.0
18/11:00pm 9.3 7.3 6.4 82 1.4 S 6 11 3 6 - - 0.0
18/10:30pm 9.4 7.2 5.4 76 1.9 S 6 13 3 7 - - 0.0
18/10:00pm 9.9 7.6 4.7 70 2.4 S 6 11 3 6 - - 0.0
18/09:30pm 10.4 8.3 6.0 74 2.1 SSE 6 9 3 5 - - 0.0
18/09:00pm 11.0 9.4 6.2 72 2.3 SSW 4 9 2 5 - - 0.0
18/08:30pm 11.6 9.5 6.5 71 2.5 SW 7 17 4 9 - - 0.0
18/08:00pm 12.5 10.4 6.8 68 2.8 SW 7 15 4 8 - - 0.0
18/07:30pm 13.7 11.2 6.6 62 3.6 WSW 9 17 5 9 - - 0.0
18/07:00pm 14.7 12.4 7.3 61 3.8 WSW 9 20 5 11 - - 0.0
18/06:30pm 14.5 12.3 8.0 65 3.4 W 9 19 5 10 - - 0.0
18/06:00pm 14.4 12.4 8.6 68 3.0 WSW 9 20 5 11 - - 0.0
18/05:30pm 14.3 12.0 8.9 70 2.8 W 11 19 6 10 - - 0.0
18/05:00pm 16.3 13.4 8.3 59 4.2 W 13 24 7 13 - - 0.0
18/04:30pm 15.7 13.4 8.9 64 3.6 WSW 11 20 6 11 - - 0.0
18/04:00pm 16.3 13.5 8.5 60 4.1 W 13 28 7 15 - - 0.0
18/03:30pm 16.1 13.7 8.8 62 3.9 W 11 24 6 13 - - 0.0
18/03:00pm 15.2 12.4 8.7 65 3.4 W 13 33 7 18 - - 0.0
18/02:30pm 15.7 12.8 8.2 61 3.9 W 13 24 7 13 - - 0.0
18/02:00pm 16.3 12.7 8.3 59 4.2 W 17 33 9 18 - - 0.0
18/01:30pm 15.4 12.2 8.4 63 3.7 W 15 39 8 21 - - 0.0
18/01:00pm 14.6 10.9 9.6 72 2.7 W 19 35 10 19 - - 0.0
18/12:30pm 14.2 10.4 9.0 71 2.7 W 19 39 10 21 - - 0.0
18/12:00pm 14.9 11.3 9.7 71 2.8 W 19 37 10 20 - - 0.0
18/11:30am 15.1 12.2 9.7 70 2.9 W 15 33 8 18 - - 0.0
18/11:00am 14.3 11.4 9.7 74 2.5 W 15 28 8 15 - - 0.0
18/10:30am 12.9 9.5 9.0 77 2.0 W 17 32 9 17 - - 0.0
18/10:00am 12.9 9.2 9.4 79 1.8 WNW 19 39 10 21 - - 0.0
18/09:30am 12.6 9.1 8.7 77 2.0 WNW 17 32 9 17 - - 0.0
18/09:00am 12.1 9.0 8.9 81 1.7 W 15 28 8 15 - - 0.0
18/08:30am 12.1 8.6 8.6 79 1.8 WNW 17 33 9 18 - - 0.0
18/08:00am 11.4 8.2 8.6 83 1.4 W 15 28 8 15 - - 0.0
18/07:30am 11.1 8.7 8.8 86 1.2 W 11 22 6 12 - - 0.0
18/07:00am 10.5 7.6 8.1 85 1.2 W 13 24 7 13 - - 0.0
18/06:30am 10.1 7.6 8.4 89 0.9 W 11 19 6 10 - - 0.0
18/06:00am 9.9 7.9 8.5 91 0.7 W 9 17 5 9 - - 0.0
18/05:30am 10.2 8.2 8.8 91 0.7 W 9 15 5 8 - - 0.0
18/05:00am 10.1 8.5 8.7 91 0.7 W 7 17 4 9 - - 0.0
18/04:30am 10.1 8.5 8.9 92 0.6 W 7 13 4 7 - - 0.0
18/04:00am 9.9 8.2 8.5 91 0.7 W 7 15 4 8 - - 0.0
18/03:30am 9.9 7.8 8.3 90 0.8 W 9 17 5 9 - - 0.0
18/03:00am 9.9 7.9 8.5 91 0.7 WNW 9 15 5 8 - - 0.0
18/02:30am 10.0 8.3 8.4 90 0.8 WNW 7 13 4 7 - - 0.0
18/02:00am 10.1 8.5 8.7 91 0.7 W 7 15 4 8 - - 0.0
18/01:30am 10.2 8.6 8.8 91 0.7 W 7 13 4 7 - - 0.0
18/01:00am 10.1 8.6 8.4 89 0.9 WNW 6 11 3 6 - - 0.0
18/12:30am 10.4 8.9 8.3 87 1.1 W 6 9 3 5 - - 0.0
18/12:00am 10.2 8.9 7.8 85 1.2 W 4 9 2 5 - - 0.0
 
Date/Time
CDT
Temp
°C
App
Temp
°C
Dew
Point
Rel
Hum
%
Delta-T
°C
Wind Press
QNH
hPa
Press
MSL
hPa
Rain
since 9 am
mm
Dir
 
Spd
km/h
Gust
km/h
Spd
kts
Gust
kts
17/11:30pm 10.1 8.7 7.2 82 1.4 WSW 4 6 2 3 - - 0.0
17/11:00pm 10.7 8.8 6.8 77 1.9 SW 6 11 3 6 - - 0.0
17/10:30pm 10.6 9.1 6.6 76 2.0 SE 4 6 2 3 - - 0.0
17/10:00pm 11.3 9.6 5.8 69 2.7 SSE 4 9 2 5 - - 0.0
17/09:30pm 12.3 10.6 5.9 65 3.1 SSW 4 7 2 4 - - 0.0
17/09:00pm 12.7 11.1 4.7 58 3.8 WSW 2 6 1 3 - - 0.0
17/08:30pm 13.7 12.0 4.0 52 4.6 WNW 2 4 1 2 - - 0.0
17/08:00pm 15.0 13.3 4.1 48 5.2 W 2 4 1 2 - - 0.0
17/07:30pm 15.4 13.4 2.2 41 6.1 SSW 2 4 1 2 - - 0.0
17/07:00pm 15.5 13.4 1.6 39 6.3 WNW 2 7 1 4 - - 0.0
17/06:30pm 15.7 12.8 2.5 41 6.2 WNW 7 13 4 7 - - 0.0
17/06:00pm 16.1 13.2 2.5 40 6.4 WNW 7 13 4 7 - - 0.0
17/05:30pm 16.1 12.9 3.2 42 6.1 WNW 9 17 5 9 - - 0.0
17/05:00pm 16.6 13.1 3.3 41 6.3 WNW 11 26 6 14 - - 0.0
17/04:30pm 16.8 13.5 2.4 38 6.8 W 9 19 5 10 - - 0.0
17/04:00pm 17.5 14.7 3.4 39 6.8 W 7 17 4 9 - - 0.0
17/03:30pm 16.7 13.6 3.7 42 6.3 NW 9 19 5 10 - - 0.0
17/03:00pm 16.2 13.0 2.9 41 6.3 W 9 20 5 11 - - 0.0
17/02:30pm 16.5 13.0 3.6 42 6.2 WNW 11 22 6 12 - - 0.0
17/02:00pm 15.9 12.4 3.7 44 5.8 W 11 24 6 13 - - 0.0
17/01:30pm 15.1 12.1 6.1 55 4.5 WNW 11 19 6 10 - - 0.0
17/01:00pm 15.3 12.6 5.5 52 4.8 W 9 19 5 10 - - 0.0
17/12:30pm 15.2 12.5 5.7 53 4.7 WNW 9 17 5 9 - - 0.0
17/12:00pm 14.1 11.5 6.0 58 4.0 W 9 15 5 8 - - 0.0
17/11:30am 14.1 11.6 6.5 60 3.8 NW 9 15 5 8 - - 0.0
17/11:00am 12.1 10.0 5.7 65 3.1 WSW 6 9 3 5 - - 0.0
17/10:30am 11.6 9.5 5.9 68 2.8 W 6 15 3 8 - - 0.0
17/10:00am 11.6 9.5 5.9 68 2.8 W 6 9 3 5 - - 0.0
17/09:30am 11.4 9.0 5.3 66 2.9 WNW 7 15 4 8 - - 0.0
17/09:00am 11.3 9.3 4.5 63 3.2 W 4 11 2 6 - - 0.0
17/08:30am 11.0 9.6 3.8 61 3.3 CALM 0 6 0 3 - - 0.0
17/08:00am 10.3 8.1 3.1 61 3.3 SSW 4 7 2 4 - - 0.0
17/07:30am 9.4 7.5 4.8 73 2.1 S 4 6 2 3 - - 0.0
17/07:00am 9.2 7.2 4.6 73 2.1 S 4 6 2 3 - - 0.0
17/06:30am 7.9 6.4 5.2 83 1.3 SSE 2 4 1 2 - - 0.0
17/06:00am 7.6 5.8 5.2 85 1.1 S 4 7 2 4 - - 0.0
17/05:30am 7.7 5.9 5.3 85 1.1 SSE 4 9 2 5 - - 0.0
17/05:00am 7.6 5.8 5.4 86 1.0 SE 4 7 2 4 - - 0.0
17/04:30am 7.6 5.9 5.7 88 0.9 SE 4 7 2 4 - - 0.0
17/04:00am 8.0 6.0 6.1 88 0.9 SSE 6 13 3 7 - - 0.0

Other Formats:

Comma delimited format used in spreadsheet applications
http://www.bom.gov.au/fwo/IDS60801/IDS60801.95678.axf

JavaScript Object Notation format (JSON) in row-major order
http://www.bom.gov.au/fwo/IDS60801/IDS60801.95678.json